sensor_id;sensor_type;location;lat;lon;timestamp;P1;durP1;ratioP1;P2;durP2;ratioP2
17422;SDS011;8829;47.932;7.810;2023-04-26T00:02:00;1.43;;;1.23;;
17422;SDS011;8829;47.932;7.810;2023-04-26T00:04:29;1.87;;;1.20;;
17422;SDS011;8829;47.932;7.810;2023-04-26T00:06:57;1.60;;;1.00;;
17422;SDS011;8829;47.932;7.810;2023-04-26T00:09:25;1.63;;;1.53;;
17422;SDS011;8829;47.932;7.810;2023-04-26T00:11:52;1.40;;;1.30;;
17422;SDS011;8829;47.932;7.810;2023-04-26T00:14:18;1.43;;;1.30;;
17422;SDS011;8829;47.932;7.810;2023-04-26T00:16:45;1.27;;;1.27;;
17422;SDS011;8829;47.932;7.810;2023-04-26T00:19:12;1.30;;;1.30;;
17422;SDS011;8829;47.932;7.810;2023-04-26T00:21:41;1.70;;;1.60;;
17422;SDS011;8829;47.932;7.810;2023-04-26T00:24:08;2.70;;;1.77;;
17422;SDS011;8829;47.932;7.810;2023-04-26T00:26:35;1.50;;;1.50;;
17422;SDS011;8829;47.932;7.810;2023-04-26T00:29:02;1.60;;;1.60;;
17422;SDS011;8829;47.932;7.810;2023-04-26T00:31:30;1.40;;;1.40;;
17422;SDS011;8829;47.932;7.810;2023-04-26T00:33:56;1.67;;;1.60;;
17422;SDS011;8829;47.932;7.810;2023-04-26T00:36:23;1.73;;;1.47;;
17422;SDS011;8829;47.932;7.810;2023-04-26T00:38:51;1.57;;;1.47;;
17422;SDS011;8829;47.932;7.810;2023-04-26T00:41:18;1.40;;;1.40;;
17422;SDS011;8829;47.932;7.810;2023-04-26T00:43:44;3.93;;;2.10;;
17422;SDS011;8829;47.932;7.810;2023-04-26T00:46:11;1.70;;;1.60;;
17422;SDS011;8829;47.932;7.810;2023-04-26T00:48:38;2.43;;;1.70;;
17422;SDS011;8829;47.932;7.810;2023-04-26T00:51:05;1.67;;;1.57;;
17422;SDS011;8829;47.932;7.810;2023-04-26T00:53:32;1.87;;;1.77;;
17422;SDS011;8829;47.932;7.810;2023-04-26T00:56:00;1.80;;;1.70;;
17422;SDS011;8829;47.932;7.810;2023-04-26T00:58:27;1.90;;;1.80;;
17422;SDS011;8829;47.932;7.810;2023-04-26T01:00:55;2.33;;;2.17;;
17422;SDS011;8829;47.932;7.810;2023-04-26T01:03:22;1.80;;;1.70;;
17422;SDS011;8829;47.932;7.810;2023-04-26T01:05:49;1.87;;;1.77;;
17422;SDS011;8829;47.932;7.810;2023-04-26T01:08:15;1.80;;;1.70;;
17422;SDS011;8829;47.932;7.810;2023-04-26T01:10:45;2.10;;;2.00;;
17422;SDS011;8829;47.932;7.810;2023-04-26T01:13:14;3.90;;;1.93;;
17422;SDS011;8829;47.932;7.810;2023-04-26T01:15:42;1.77;;;1.67;;
17422;SDS011;8829;47.932;7.810;2023-04-26T01:18:10;1.70;;;1.60;;
17422;SDS011;8829;47.932;7.810;2023-04-26T01:20:37;2.73;;;2.23;;
17422;SDS011;8829;47.932;7.810;2023-04-26T01:23:07;2.67;;;1.70;;
17422;SDS011;8829;47.932;7.810;2023-04-26T01:25:34;1.70;;;1.60;;
17422;SDS011;8829;47.932;7.810;2023-04-26T01:28:01;1.70;;;1.60;;
17422;SDS011;8829;47.932;7.810;2023-04-26T01:30:28;1.83;;;1.73;;
17422;SDS011;8829;47.932;7.810;2023-04-26T01:32:54;1.60;;;1.50;;
17422;SDS011;8829;47.932;7.810;2023-04-26T01:35:21;1.63;;;1.53;;
17422;SDS011;8829;47.932;7.810;2023-04-26T01:37:48;1.97;;;1.87;;
17422;SDS011;8829;47.932;7.810;2023-04-26T01:40:16;2.10;;;1.90;;
17422;SDS011;8829;47.932;7.810;2023-04-26T01:42:43;1.97;;;1.87;;
17422;SDS011;8829;47.932;7.810;2023-04-26T01:45:10;1.73;;;1.63;;
17422;SDS011;8829;47.932;7.810;2023-04-26T01:47:37;1.80;;;1.70;;
17422;SDS011;8829;47.932;7.810;2023-04-26T01:50:04;3.03;;;1.60;;
17422;SDS011;8829;47.932;7.810;2023-04-26T01:52:31;1.83;;;1.70;;
17422;SDS011;8829;47.932;7.810;2023-04-26T01:54:58;1.60;;;1.50;;
17422;SDS011;8829;47.932;7.810;2023-04-26T01:57:26;1.70;;;1.60;;
17422;SDS011;8829;47.932;7.810;2023-04-26T01:59:53;2.50;;;1.60;;
17422;SDS011;8829;47.932;7.810;2023-04-26T02:02:20;1.60;;;1.50;;
17422;SDS011;8829;47.932;7.810;2023-04-26T02:04:47;2.43;;;1.43;;
17422;SDS011;8829;47.932;7.810;2023-04-26T02:07:14;2.30;;;2.20;;
17422;SDS011;8829;47.932;7.810;2023-04-26T02:09:40;1.43;;;1.43;;
17422;SDS011;8829;47.932;7.810;2023-04-26T02:12:07;1.53;;;1.50;;
17422;SDS011;8829;47.932;7.810;2023-04-26T02:14:35;1.53;;;1.33;;
17422;SDS011;8829;47.932;7.810;2023-04-26T02:17:02;1.70;;;1.60;;
17422;SDS011;8829;47.932;7.810;2023-04-26T02:19:30;2.40;;;1.70;;
17422;SDS011;8829;47.932;7.810;2023-04-26T02:21:57;1.40;;;1.40;;
17422;SDS011;8829;47.932;7.810;2023-04-26T02:24:24;1.83;;;1.60;;
17422;SDS011;8829;47.932;7.810;2023-04-26T02:26:51;1.70;;;1.57;;
17422;SDS011;8829;47.932;7.810;2023-04-26T02:29:18;1.47;;;1.47;;
17422;SDS011;8829;47.932;7.810;2023-04-26T02:31:46;3.97;;;1.90;;
17422;SDS011;8829;47.932;7.810;2023-04-26T02:34:13;1.80;;;1.70;;
17422;SDS011;8829;47.932;7.810;2023-04-26T02:36:40;1.77;;;1.67;;
17422;SDS011;8829;47.932;7.810;2023-04-26T02:39:07;2.47;;;1.80;;
17422;SDS011;8829;47.932;7.810;2023-04-26T02:41:33;1.50;;;1.50;;
17422;SDS011;8829;47.932;7.810;2023-04-26T02:44:00;1.80;;;1.70;;
17422;SDS011;8829;47.932;7.810;2023-04-26T02:46:27;1.90;;;1.80;;
17422;SDS011;8829;47.932;7.810;2023-04-26T02:48:55;2.17;;;1.83;;
17422;SDS011;8829;47.932;7.810;2023-04-26T02:51:21;2.00;;;1.90;;
17422;SDS011;8829;47.932;7.810;2023-04-26T02:53:48;1.80;;;1.70;;
17422;SDS011;8829;47.932;7.810;2023-04-26T02:56:15;4.37;;;2.07;;
17422;SDS011;8829;47.932;7.810;2023-04-26T02:58:41;2.20;;;1.57;;
17422;SDS011;8829;47.932;7.810;2023-04-26T03:01:08;1.50;;;1.40;;
17422;SDS011;8829;47.932;7.810;2023-04-26T03:03:36;4.07;;;1.60;;
17422;SDS011;8829;47.932;7.810;2023-04-26T03:06:05;1.70;;;1.60;;
17422;SDS011;8829;47.932;7.810;2023-04-26T03:08:32;1.90;;;1.77;;
17422;SDS011;8829;47.932;7.810;2023-04-26T03:11:00;2.53;;;1.90;;
17422;SDS011;8829;47.932;7.810;2023-04-26T03:13:27;1.80;;;1.70;;
17422;SDS011;8829;47.932;7.810;2023-04-26T03:15:54;1.53;;;1.53;;
17422;SDS011;8829;47.932;7.810;2023-04-26T03:18:20;1.83;;;1.60;;
17422;SDS011;8829;47.932;7.810;2023-04-26T03:20:47;2.67;;;2.10;;
17422;SDS011;8829;47.932;7.810;2023-04-26T03:23:15;1.67;;;1.60;;
17422;SDS011;8829;47.932;7.810;2023-04-26T03:25:42;1.80;;;1.70;;
17422;SDS011;8829;47.932;7.810;2023-04-26T03:28:09;3.17;;;1.57;;
17422;SDS011;8829;47.932;7.810;2023-04-26T03:30:35;4.70;;;1.90;;
17422;SDS011;8829;47.932;7.810;2023-04-26T03:33:02;1.90;;;1.80;;
17422;SDS011;8829;47.932;7.810;2023-04-26T03:35:29;1.90;;;1.80;;
17422;SDS011;8829;47.932;7.810;2023-04-26T03:37:55;2.07;;;1.97;;
17422;SDS011;8829;47.932;7.810;2023-04-26T03:40:23;2.27;;;2.00;;
17422;SDS011;8829;47.932;7.810;2023-04-26T03:42:50;1.77;;;1.67;;
17422;SDS011;8829;47.932;7.810;2023-04-26T03:45:17;2.00;;;1.80;;
17422;SDS011;8829;47.932;7.810;2023-04-26T03:47:44;2.10;;;2.00;;
17422;SDS011;8829;47.932;7.810;2023-04-26T03:50:10;1.70;;;1.60;;
17422;SDS011;8829;47.932;7.810;2023-04-26T03:52:37;5.87;;;2.50;;
17422;SDS011;8829;47.932;7.810;2023-04-26T03:55:04;1.83;;;1.73;;
17422;SDS011;8829;47.932;7.810;2023-04-26T03:57:34;1.73;;;1.63;;
17422;SDS011;8829;47.932;7.810;2023-04-26T04:00:01;2.70;;;1.97;;
17422;SDS011;8829;47.932;7.810;2023-04-26T04:02:32;1.77;;;1.67;;
17422;SDS011;8829;47.932;7.810;2023-04-26T04:04:59;2.30;;;1.83;;
17422;SDS011;8829;47.932;7.810;2023-04-26T04:07:26;1.90;;;1.80;;
17422;SDS011;8829;47.932;7.810;2023-04-26T04:09:52;1.97;;;1.43;;
17422;SDS011;8829;47.932;7.810;2023-04-26T04:12:19;1.70;;;1.60;;
17422;SDS011;8829;47.932;7.810;2023-04-26T04:14:48;1.70;;;1.60;;
17422;SDS011;8829;47.932;7.810;2023-04-26T04:17:15;2.23;;;2.00;;
17422;SDS011;8829;47.932;7.810;2023-04-26T04:19:41;1.90;;;1.80;;
17422;SDS011;8829;47.932;7.810;2023-04-26T04:22:09;3.60;;;1.53;;
17422;SDS011;8829;47.932;7.810;2023-04-26T04:24:35;1.60;;;1.50;;
17422;SDS011;8829;47.932;7.810;2023-04-26T04:27:02;2.47;;;1.77;;
17422;SDS011;8829;47.932;7.810;2023-04-26T04:29:29;1.80;;;1.70;;
17422;SDS011;8829;47.932;7.810;2023-04-26T04:31:58;2.00;;;1.90;;
17422;SDS011;8829;47.932;7.810;2023-04-26T04:34:24;2.70;;;2.03;;
17422;SDS011;8829;47.932;7.810;2023-04-26T04:36:51;2.00;;;1.90;;
17422;SDS011;8829;47.932;7.810;2023-04-26T04:39:18;1.70;;;1.60;;
17422;SDS011;8829;47.932;7.810;2023-04-26T04:41:45;2.20;;;2.00;;
17422;SDS011;8829;47.932;7.810;2023-04-26T04:44:13;3.20;;;2.87;;
17422;SDS011;8829;47.932;7.810;2023-04-26T04:46:40;3.47;;;2.10;;
17422;SDS011;8829;47.932;7.810;2023-04-26T04:49:09;1.77;;;1.67;;
17422;SDS011;8829;47.932;7.810;2023-04-26T04:51:36;1.80;;;1.70;;
17422;SDS011;8829;47.932;7.810;2023-04-26T04:54:08;1.80;;;1.70;;
17422;SDS011;8829;47.932;7.810;2023-04-26T04:56:35;1.90;;;1.80;;
17422;SDS011;8829;47.932;7.810;2023-04-26T04:59:02;1.77;;;1.67;;
17422;SDS011;8829;47.932;7.810;2023-04-26T05:01:29;1.83;;;1.73;;
17422;SDS011;8829;47.932;7.810;2023-04-26T05:03:57;1.77;;;1.67;;
17422;SDS011;8829;47.932;7.810;2023-04-26T05:06:25;1.50;;;1.50;;
17422;SDS011;8829;47.932;7.810;2023-04-26T05:08:53;1.60;;;1.53;;
17422;SDS011;8829;47.932;7.810;2023-04-26T05:11:19;1.83;;;1.57;;
17422;SDS011;8829;47.932;7.810;2023-04-26T05:13:46;1.50;;;1.50;;
17422;SDS011;8829;47.932;7.810;2023-04-26T05:16:14;1.50;;;1.40;;
17422;SDS011;8829;47.932;7.810;2023-04-26T05:18:41;1.90;;;1.80;;
17422;SDS011;8829;47.932;7.810;2023-04-26T05:21:08;2.00;;;1.90;;
17422;SDS011;8829;47.932;7.810;2023-04-26T05:23:36;2.57;;;1.83;;
17422;SDS011;8829;47.932;7.810;2023-04-26T05:26:03;1.90;;;1.60;;
17422;SDS011;8829;47.932;7.810;2023-04-26T05:28:31;1.80;;;1.70;;
17422;SDS011;8829;47.932;7.810;2023-04-26T05:30:58;1.90;;;1.80;;
17422;SDS011;8829;47.932;7.810;2023-04-26T05:33:25;1.70;;;1.60;;
17422;SDS011;8829;47.932;7.810;2023-04-26T05:35:52;1.90;;;1.80;;
17422;SDS011;8829;47.932;7.810;2023-04-26T05:38:21;2.63;;;2.00;;
17422;SDS011;8829;47.932;7.810;2023-04-26T05:40:50;2.00;;;1.90;;
17422;SDS011;8829;47.932;7.810;2023-04-26T05:43:17;1.70;;;1.60;;
17422;SDS011;8829;47.932;7.810;2023-04-26T05:45:49;1.60;;;1.50;;
17422;SDS011;8829;47.932;7.810;2023-04-26T05:48:16;2.47;;;1.80;;
17422;SDS011;8829;47.932;7.810;2023-04-26T05:50:43;2.27;;;1.90;;
17422;SDS011;8829;47.932;7.810;2023-04-26T05:53:09;1.90;;;1.80;;
17422;SDS011;8829;47.932;7.810;2023-04-26T05:55:36;2.87;;;2.30;;
17422;SDS011;8829;47.932;7.810;2023-04-26T05:58:04;5.67;;;2.90;;
17422;SDS011;8829;47.932;7.810;2023-04-26T06:00:31;3.33;;;2.30;;
17422;SDS011;8829;47.932;7.810;2023-04-26T06:02:58;3.90;;;2.90;;
17422;SDS011;8829;47.932;7.810;2023-04-26T06:05:25;5.10;;;3.83;;
17422;SDS011;8829;47.932;7.810;2023-04-26T06:07:51;3.93;;;3.47;;
17422;SDS011;8829;47.932;7.810;2023-04-26T06:10:18;5.90;;;4.40;;
17422;SDS011;8829;47.932;7.810;2023-04-26T06:12:45;5.83;;;3.63;;
17422;SDS011;8829;47.932;7.810;2023-04-26T06:15:14;5.47;;;4.43;;
17422;SDS011;8829;47.932;7.810;2023-04-26T06:17:40;3.90;;;3.50;;
17422;SDS011;8829;47.932;7.810;2023-04-26T06:20:07;4.73;;;4.33;;
17422;SDS011;8829;47.932;7.810;2023-04-26T06:22:34;3.80;;;3.50;;
17422;SDS011;8829;47.932;7.810;2023-04-26T06:25:02;4.27;;;3.77;;
17422;SDS011;8829;47.932;7.810;2023-04-26T06:27:29;3.13;;;2.93;;
17422;SDS011;8829;47.932;7.810;2023-04-26T06:29:56;4.07;;;3.77;;
17422;SDS011;8829;47.932;7.810;2023-04-26T06:32:25;4.30;;;4.00;;
17422;SDS011;8829;47.932;7.810;2023-04-26T06:34:52;4.60;;;4.20;;
17422;SDS011;8829;47.932;7.810;2023-04-26T06:37:18;7.43;;;5.47;;
17422;SDS011;8829;47.932;7.810;2023-04-26T06:39:45;5.83;;;5.23;;
17422;SDS011;8829;47.932;7.810;2023-04-26T06:42:12;3.47;;;3.27;;
17422;SDS011;8829;47.932;7.810;2023-04-26T06:44:39;3.27;;;3.07;;
17422;SDS011;8829;47.932;7.810;2023-04-26T06:47:06;3.63;;;3.23;;
17422;SDS011;8829;47.932;7.810;2023-04-26T06:49:35;3.97;;;3.33;;
17422;SDS011;8829;47.932;7.810;2023-04-26T06:52:02;4.40;;;4.00;;
17422;SDS011;8829;47.932;7.810;2023-04-26T06:54:30;4.00;;;3.60;;
17422;SDS011;8829;47.932;7.810;2023-04-26T06:56:57;3.20;;;3.00;;
17422;SDS011;8829;47.932;7.810;2023-04-26T06:59:24;3.80;;;2.90;;
17422;SDS011;8829;47.932;7.810;2023-04-26T07:01:51;3.67;;;3.37;;
17422;SDS011;8829;47.932;7.810;2023-04-26T07:04:18;3.70;;;3.40;;
17422;SDS011;8829;47.932;7.810;2023-04-26T07:06:46;3.27;;;3.07;;
17422;SDS011;8829;47.932;7.810;2023-04-26T07:09:13;4.20;;;3.80;;
17422;SDS011;8829;47.932;7.810;2023-04-26T07:11:39;4.77;;;3.90;;
17422;SDS011;8829;47.932;7.810;2023-04-26T07:14:06;4.30;;;3.90;;
17422;SDS011;8829;47.932;7.810;2023-04-26T07:16:33;4.17;;;3.77;;
17422;SDS011;8829;47.932;7.810;2023-04-26T07:18:59;3.80;;;3.43;;
17422;SDS011;8829;47.932;7.810;2023-04-26T07:21:26;4.17;;;3.87;;
17422;SDS011;8829;47.932;7.810;2023-04-26T07:23:54;3.80;;;3.50;;
17422;SDS011;8829;47.932;7.810;2023-04-26T07:26:22;4.10;;;3.80;;
17422;SDS011;8829;47.932;7.810;2023-04-26T07:28:50;4.80;;;4.23;;
17422;SDS011;8829;47.932;7.810;2023-04-26T07:31:17;6.77;;;5.30;;
17422;SDS011;8829;47.932;7.810;2023-04-26T07:33:43;5.67;;;4.20;;
17422;SDS011;8829;47.932;7.810;2023-04-26T07:36:10;4.93;;;4.10;;
17422;SDS011;8829;47.932;7.810;2023-04-26T07:38:37;5.93;;;4.93;;
17422;SDS011;8829;47.932;7.810;2023-04-26T07:41:05;4.80;;;4.40;;
17422;SDS011;8829;47.932;7.810;2023-04-26T07:43:31;4.07;;;3.77;;
17422;SDS011;8829;47.932;7.810;2023-04-26T07:45:58;3.70;;;3.40;;
17422;SDS011;8829;47.932;7.810;2023-04-26T07:48:26;3.53;;;3.33;;
17422;SDS011;8829;47.932;7.810;2023-04-26T07:50:52;4.10;;;3.27;;
17422;SDS011;8829;47.932;7.810;2023-04-26T07:53:19;3.07;;;2.87;;
17422;SDS011;8829;47.932;7.810;2023-04-26T07:55:46;2.87;;;2.67;;
17422;SDS011;8829;47.932;7.810;2023-04-26T07:58:14;2.87;;;2.67;;
17422;SDS011;8829;47.932;7.810;2023-04-26T08:00:41;3.90;;;3.30;;
17422;SDS011;8829;47.932;7.810;2023-04-26T08:03:07;3.50;;;3.20;;
17422;SDS011;8829;47.932;7.810;2023-04-26T08:05:36;2.50;;;2.40;;
17422;SDS011;8829;47.932;7.810;2023-04-26T08:08:03;3.40;;;2.90;;
17422;SDS011;8829;47.932;7.810;2023-04-26T08:10:30;3.47;;;3.20;;
17422;SDS011;8829;47.932;7.810;2023-04-26T08:12:56;3.93;;;3.57;;
17422;SDS011;8829;47.932;7.810;2023-04-26T08:15:28;8.93;;;6.87;;
17422;SDS011;8829;47.932;7.810;2023-04-26T08:17:56;3.40;;;3.10;;
17422;SDS011;8829;47.932;7.810;2023-04-26T08:20:23;3.37;;;3.07;;
17422;SDS011;8829;47.932;7.810;2023-04-26T08:22:53;4.20;;;3.90;;
17422;SDS011;8829;47.932;7.810;2023-04-26T08:25:21;3.90;;;3.60;;
17422;SDS011;8829;47.932;7.810;2023-04-26T08:27:48;4.40;;;4.00;;
17422;SDS011;8829;47.932;7.810;2023-04-26T08:30:15;4.00;;;3.70;;
17422;SDS011;8829;47.932;7.810;2023-04-26T08:32:44;4.40;;;4.00;;
17422;SDS011;8829;47.932;7.810;2023-04-26T08:35:11;4.17;;;3.77;;
17422;SDS011;8829;47.932;7.810;2023-04-26T08:37:37;5.00;;;4.50;;
17422;SDS011;8829;47.932;7.810;2023-04-26T08:40:05;5.03;;;4.53;;
17422;SDS011;8829;47.932;7.810;2023-04-26T08:42:34;4.87;;;4.37;;
17422;SDS011;8829;47.932;7.810;2023-04-26T08:45:06;4.10;;;3.70;;
17422;SDS011;8829;47.932;7.810;2023-04-26T08:47:36;5.70;;;5.10;;
17422;SDS011;8829;47.932;7.810;2023-04-26T08:50:08;6.00;;;5.40;;
17422;SDS011;8829;47.932;7.810;2023-04-26T08:52:36;5.97;;;5.30;;
17422;SDS011;8829;47.932;7.810;2023-04-26T08:55:05;5.87;;;5.27;;
17422;SDS011;8829;47.932;7.810;2023-04-26T08:57:33;5.60;;;5.10;;
17422;SDS011;8829;47.932;7.810;2023-04-26T09:00:01;4.93;;;4.53;;
17422;SDS011;8829;47.932;7.810;2023-04-26T09:02:30;5.37;;;4.87;;
17422;SDS011;8829;47.932;7.810;2023-04-26T09:04:57;5.07;;;4.63;;
17422;SDS011;8829;47.932;7.810;2023-04-26T09:07:26;5.97;;;4.70;;
17422;SDS011;8829;47.932;7.810;2023-04-26T09:09:56;7.10;;;6.33;;
17422;SDS011;8829;47.932;7.810;2023-04-26T09:12:24;6.37;;;5.77;;
17422;SDS011;8829;47.932;7.810;2023-04-26T09:14:51;24.87;;;19.63;;
17422;SDS011;8829;47.932;7.810;2023-04-26T09:17:24;5.60;;;5.10;;
17422;SDS011;8829;47.932;7.810;2023-04-26T09:19:52;5.23;;;4.83;;
17422;SDS011;8829;47.932;7.810;2023-04-26T09:22:27;5.27;;;4.80;;
17422;SDS011;8829;47.932;7.810;2023-04-26T09:24:55;5.57;;;5.00;;
17422;SDS011;8829;47.932;7.810;2023-04-26T09:27:25;5.03;;;4.47;;
17422;SDS011;8829;47.932;7.810;2023-04-26T09:29:58;5.10;;;4.53;;
17422;SDS011;8829;47.932;7.810;2023-04-26T09:32:36;5.63;;;4.70;;
17422;SDS011;8829;47.932;7.810;2023-04-26T09:35:17;5.00;;;4.50;;
17422;SDS011;8829;47.932;7.810;2023-04-26T09:37:51;5.00;;;4.60;;
17422;SDS011;8829;47.932;7.810;2023-04-26T09:40:24;5.90;;;4.83;;
17422;SDS011;8829;47.932;7.810;2023-04-26T09:42:55;5.70;;;5.10;;
17422;SDS011;8829;47.932;7.810;2023-04-26T09:45:23;5.37;;;4.87;;
17422;SDS011;8829;47.932;7.810;2023-04-26T09:47:50;5.73;;;5.20;;
17422;SDS011;8829;47.932;7.810;2023-04-26T09:50:26;4.53;;;4.13;;
17422;SDS011;8829;47.932;7.810;2023-04-26T09:52:56;4.93;;;4.10;;
17422;SDS011;8829;47.932;7.810;2023-04-26T09:55:26;5.03;;;4.23;;
17422;SDS011;8829;47.932;7.810;2023-04-26T09:57:54;5.10;;;4.70;;
17422;SDS011;8829;47.932;7.810;2023-04-26T10:00:22;4.37;;;4.00;;
17422;SDS011;8829;47.932;7.810;2023-04-26T10:02:49;4.10;;;3.70;;
17422;SDS011;8829;47.932;7.810;2023-04-26T10:05:17;3.60;;;3.30;;
17422;SDS011;8829;47.932;7.810;2023-04-26T10:07:45;4.20;;;3.80;;
17422;SDS011;8829;47.932;7.810;2023-04-26T10:10:13;2.93;;;2.73;;
17422;SDS011;8829;47.932;7.810;2023-04-26T10:12:40;3.63;;;2.97;;
17422;SDS011;8829;47.932;7.810;2023-04-26T10:15:08;3.93;;;3.60;;
17422;SDS011;8829;47.932;7.810;2023-04-26T10:17:36;3.87;;;3.47;;
17422;SDS011;8829;47.932;7.810;2023-04-26T10:20:03;4.33;;;3.77;;
17422;SDS011;8829;47.932;7.810;2023-04-26T10:22:36;3.73;;;3.43;;
17422;SDS011;8829;47.932;7.810;2023-04-26T10:25:08;3.37;;;3.17;;
17422;SDS011;8829;47.932;7.810;2023-04-26T10:27:51;3.90;;;3.37;;
17422;SDS011;8829;47.932;7.810;2023-04-26T10:30:19;3.47;;;3.17;;
17422;SDS011;8829;47.932;7.810;2023-04-26T10:36:00;3.47;;;3.27;;
17422;SDS011;8829;47.932;7.810;2023-04-26T10:38:29;3.80;;;3.20;;
17422;SDS011;8829;47.932;7.810;2023-04-26T10:43:55;4.80;;;3.87;;
17422;SDS011;8829;47.932;7.810;2023-04-26T10:46:33;4.17;;;3.73;;
17422;SDS011;8829;47.932;7.810;2023-04-26T10:49:12;3.87;;;3.57;;
17422;SDS011;8829;47.932;7.810;2023-04-26T10:51:39;3.77;;;3.47;;
17422;SDS011;8829;47.932;7.810;2023-04-26T10:54:06;4.60;;;3.30;;
17422;SDS011;8829;47.932;7.810;2023-04-26T10:56:49;3.60;;;3.30;;
17422;SDS011;8829;47.932;7.810;2023-04-26T10:59:20;3.57;;;3.27;;
17422;SDS011;8829;47.932;7.810;2023-04-26T11:01:47;3.27;;;3.00;;
17422;SDS011;8829;47.932;7.810;2023-04-26T11:04:13;3.93;;;3.00;;
17422;SDS011;8829;47.932;7.810;2023-04-26T11:06:47;3.57;;;2.83;;
17422;SDS011;8829;47.932;7.810;2023-04-26T11:09:34;2.93;;;2.73;;
17422;SDS011;8829;47.932;7.810;2023-04-26T11:12:02;3.27;;;2.97;;
17422;SDS011;8829;47.932;7.810;2023-04-26T11:14:31;12.77;;;6.83;;
17422;SDS011;8829;47.932;7.810;2023-04-26T11:17:01;3.67;;;3.37;;
17422;SDS011;8829;47.932;7.810;2023-04-26T11:19:29;6.57;;;3.13;;
17422;SDS011;8829;47.932;7.810;2023-04-26T11:21:56;4.97;;;3.67;;
17422;SDS011;8829;47.932;7.810;2023-04-26T11:24:24;3.37;;;3.07;;
17422;SDS011;8829;47.932;7.810;2023-04-26T11:26:51;4.50;;;3.30;;
17422;SDS011;8829;47.932;7.810;2023-04-26T11:29:18;4.17;;;3.77;;
17422;SDS011;8829;47.932;7.810;2023-04-26T11:34:30;3.80;;;3.40;;
17422;SDS011;8829;47.932;7.810;2023-04-26T11:36:57;5.03;;;4.23;;
17422;SDS011;8829;47.932;7.810;2023-04-26T11:39:24;5.57;;;4.53;;
17422;SDS011;8829;47.932;7.810;2023-04-26T11:41:54;4.50;;;4.10;;
17422;SDS011;8829;47.932;7.810;2023-04-26T11:44:29;3.83;;;3.43;;
17422;SDS011;8829;47.932;7.810;2023-04-26T11:46:56;3.93;;;3.63;;
17422;SDS011;8829;47.932;7.810;2023-04-26T11:49:24;3.93;;;3.63;;
17422;SDS011;8829;47.932;7.810;2023-04-26T11:51:51;4.30;;;4.00;;
17422;SDS011;8829;47.932;7.810;2023-04-26T11:54:27;4.53;;;4.13;;
17422;SDS011;8829;47.932;7.810;2023-04-26T11:56:55;4.23;;;3.83;;
17422;SDS011;8829;47.932;7.810;2023-04-26T11:59:22;9.43;;;4.63;;
17422;SDS011;8829;47.932;7.810;2023-04-26T12:01:49;5.73;;;4.23;;
17422;SDS011;8829;47.932;7.810;2023-04-26T12:04:16;5.07;;;3.97;;
17422;SDS011;8829;47.932;7.810;2023-04-26T12:06:45;3.37;;;3.17;;
17422;SDS011;8829;47.932;7.810;2023-04-26T12:09:13;3.77;;;3.47;;
17422;SDS011;8829;47.932;7.810;2023-04-26T12:11:41;3.40;;;3.20;;
17422;SDS011;8829;47.932;7.810;2023-04-26T12:14:14;4.40;;;3.97;;
17422;SDS011;8829;47.932;7.810;2023-04-26T12:16:41;3.57;;;3.10;;
17422;SDS011;8829;47.932;7.810;2023-04-26T12:19:08;3.70;;;3.40;;
17422;SDS011;8829;47.932;7.810;2023-04-26T12:21:41;6.53;;;3.40;;
17422;SDS011;8829;47.932;7.810;2023-04-26T12:24:21;4.30;;;2.70;;
17422;SDS011;8829;47.932;7.810;2023-04-26T12:26:48;2.53;;;2.33;;
17422;SDS011;8829;47.932;7.810;2023-04-26T12:29:15;3.93;;;3.10;;
17422;SDS011;8829;47.932;7.810;2023-04-26T12:31:41;2.57;;;2.33;;
17422;SDS011;8829;47.932;7.810;2023-04-26T12:34:08;3.30;;;3.00;;
17422;SDS011;8829;47.932;7.810;2023-04-26T12:36:35;2.97;;;2.70;;
17422;SDS011;8829;47.932;7.810;2023-04-26T12:39:02;2.37;;;2.10;;
17422;SDS011;8829;47.932;7.810;2023-04-26T12:41:31;2.67;;;1.93;;
17422;SDS011;8829;47.932;7.810;2023-04-26T12:43:57;3.20;;;2.07;;
17422;SDS011;8829;47.932;7.810;2023-04-26T12:46:26;2.90;;;2.53;;
17422;SDS011;8829;47.932;7.810;2023-04-26T12:48:53;2.50;;;2.30;;
17422;SDS011;8829;47.932;7.810;2023-04-26T12:51:19;2.50;;;2.30;;
17422;SDS011;8829;47.932;7.810;2023-04-26T12:53:46;2.20;;;2.00;;
17422;SDS011;8829;47.932;7.810;2023-04-26T12:56:13;2.33;;;1.60;;
17422;SDS011;8829;47.932;7.810;2023-04-26T12:58:41;2.43;;;1.63;;
17422;SDS011;8829;47.932;7.810;2023-04-26T13:01:08;4.27;;;1.67;;
17422;SDS011;8829;47.932;7.810;2023-04-26T13:03:35;1.50;;;1.40;;
17422;SDS011;8829;47.932;7.810;2023-04-26T13:06:02;1.97;;;1.30;;
17422;SDS011;8829;47.932;7.810;2023-04-26T13:08:29;3.37;;;1.73;;
17422;SDS011;8829;47.932;7.810;2023-04-26T13:10:56;1.47;;;1.07;;
17422;SDS011;8829;47.932;7.810;2023-04-26T13:13:23;2.33;;;1.40;;
17422;SDS011;8829;47.932;7.810;2023-04-26T13:15:52;1.70;;;1.23;;
17422;SDS011;8829;47.932;7.810;2023-04-26T13:18:18;3.20;;;2.30;;
17422;SDS011;8829;47.932;7.810;2023-04-26T13:20:45;1.80;;;1.13;;
17422;SDS011;8829;47.932;7.810;2023-04-26T13:23:12;1.00;;;1.00;;
17422;SDS011;8829;47.932;7.810;2023-04-26T13:25:39;0.93;;;0.93;;
17422;SDS011;8829;47.932;7.810;2023-04-26T13:28:06;1.20;;;1.10;;
17422;SDS011;8829;47.932;7.810;2023-04-26T13:30:33;2.43;;;1.50;;
17422;SDS011;8829;47.932;7.810;2023-04-26T13:33:01;1.73;;;1.50;;
17422;SDS011;8829;47.932;7.810;2023-04-26T13:35:28;2.27;;;1.50;;
17422;SDS011;8829;47.932;7.810;2023-04-26T13:37:55;2.43;;;2.23;;
17422;SDS011;8829;47.932;7.810;2023-04-26T13:40:21;2.60;;;1.87;;
17422;SDS011;8829;47.932;7.810;2023-04-26T13:42:48;3.20;;;2.63;;
17422;SDS011;8829;47.932;7.810;2023-04-26T13:45:15;2.20;;;2.10;;
17422;SDS011;8829;47.932;7.810;2023-04-26T13:47:41;2.97;;;2.67;;
17422;SDS011;8829;47.932;7.810;2023-04-26T13:50:09;3.33;;;2.63;;
17422;SDS011;8829;47.932;7.810;2023-04-26T13:52:36;3.03;;;2.70;;
17422;SDS011;8829;47.932;7.810;2023-04-26T13:55:03;2.70;;;2.50;;
17422;SDS011;8829;47.932;7.810;2023-04-26T13:57:31;3.03;;;2.77;;
17422;SDS011;8829;47.932;7.810;2023-04-26T13:59:58;4.17;;;3.77;;
17422;SDS011;8829;47.932;7.810;2023-04-26T14:02:24;6.60;;;4.90;;
17422;SDS011;8829;47.932;7.810;2023-04-26T14:04:51;3.50;;;3.20;;
17422;SDS011;8829;47.932;7.810;2023-04-26T14:07:19;2.43;;;2.30;;
17422;SDS011;8829;47.932;7.810;2023-04-26T14:09:46;3.83;;;3.03;;
17422;SDS011;8829;47.932;7.810;2023-04-26T14:12:13;3.63;;;2.80;;
17422;SDS011;8829;47.932;7.810;2023-04-26T14:14:40;5.53;;;3.20;;
17422;SDS011;8829;47.932;7.810;2023-04-26T14:17:07;2.93;;;2.70;;
17422;SDS011;8829;47.932;7.810;2023-04-26T14:19:33;7.07;;;3.73;;
17422;SDS011;8829;47.932;7.810;2023-04-26T14:22:00;3.83;;;2.50;;
17422;SDS011;8829;47.932;7.810;2023-04-26T14:24:28;3.30;;;2.50;;
17422;SDS011;8829;47.932;7.810;2023-04-26T14:26:55;3.60;;;3.17;;
17422;SDS011;8829;47.932;7.810;2023-04-26T14:29:22;3.30;;;2.80;;
17422;SDS011;8829;47.932;7.810;2023-04-26T14:31:48;2.80;;;2.60;;
17422;SDS011;8829;47.932;7.810;2023-04-26T14:34:15;2.73;;;2.50;;
17422;SDS011;8829;47.932;7.810;2023-04-26T14:36:42;3.07;;;2.40;;
17422;SDS011;8829;47.932;7.810;2023-04-26T14:39:09;2.70;;;2.50;;
17422;SDS011;8829;47.932;7.810;2023-04-26T14:41:37;3.73;;;2.50;;
17422;SDS011;8829;47.932;7.810;2023-04-26T14:44:03;8.03;;;5.67;;
17422;SDS011;8829;47.932;7.810;2023-04-26T14:46:30;3.50;;;2.70;;
17422;SDS011;8829;47.932;7.810;2023-04-26T14:48:57;2.83;;;2.60;;
17422;SDS011;8829;47.932;7.810;2023-04-26T14:51:23;3.77;;;2.13;;
17422;SDS011;8829;47.932;7.810;2023-04-26T14:53:51;5.17;;;2.13;;
17422;SDS011;8829;47.932;7.810;2023-04-26T14:56:17;5.20;;;2.50;;
17422;SDS011;8829;47.932;7.810;2023-04-26T14:58:46;2.10;;;1.87;;
17422;SDS011;8829;47.932;7.810;2023-04-26T15:01:12;2.67;;;2.33;;
17422;SDS011;8829;47.932;7.810;2023-04-26T15:03:39;2.43;;;2.23;;
17422;SDS011;8829;47.932;7.810;2023-04-26T15:06:06;2.60;;;2.40;;
17422;SDS011;8829;47.932;7.810;2023-04-26T15:08:33;3.20;;;3.00;;
17422;SDS011;8829;47.932;7.810;2023-04-26T15:11:01;2.27;;;1.90;;
17422;SDS011;8829;47.932;7.810;2023-04-26T15:13:28;3.80;;;2.40;;